createdAt,value
2022-08-05T00:00:19.453Z,100398.03
2022-08-05T00:02:51.639Z,100398.03
2022-08-05T00:06:02.632Z,100396.16
2022-08-05T00:08:35.182Z,100393.97
2022-08-05T00:10:56.361Z,100394.28
2022-08-05T00:13:39.444Z,100393.13
2022-08-05T00:16:08.551Z,100394.47
2022-08-05T00:18:36.079Z,100395.31
2022-08-05T00:21:05.053Z,100390.59
2022-08-05T00:23:46.060Z,100390.44
2022-08-05T00:26:13.807Z,100390.88
2022-08-05T00:28:43.209Z,100390.72
2022-08-05T00:31:12.413Z,100387.84
2022-08-05T00:34:54.292Z,100391.03
2022-08-05T00:37:11.836Z,100385.28
2022-08-05T00:39:13.799Z,100390.81
2022-08-05T00:41:51.984Z,100383.63
2022-08-05T00:44:23.176Z,100382.59
2022-08-05T00:46:54.187Z,100381.75
2022-08-05T00:49:32.574Z,100382.94
2022-08-05T00:52:11.097Z,100381.25
2022-08-05T00:54:38.646Z,100381.25
2022-08-05T00:57:05.295Z,100389.28
2022-08-05T00:59:34.744Z,100381.88
2022-08-05T01:02:11.323Z,100372.28
2022-08-05T01:04:38.007Z,100375.47
2022-08-05T01:07:08.810Z,100371.47
2022-08-05T01:09:41.857Z,100371.09
2022-08-05T01:12:18.159Z,100376.81
2022-08-05T01:14:48.874Z,100378.81
2022-08-05T01:17:53.531Z,100371.41
2022-08-05T01:20:58.044Z,100384.84
2022-08-05T01:23:53.209Z,100377.91
2022-08-05T01:26:54.023Z,100369.69
2022-08-05T01:29:30.767Z,100369.69
2022-08-05T01:32:00.722Z,100372.69
2022-08-05T01:34:38.044Z,100370.84
2022-08-05T01:37:25.437Z,100377.53
2022-08-05T01:39:54.659Z,100384.28
2022-08-05T01:42:25.449Z,100380.47
2022-08-05T01:44:53.944Z,100380.22
2022-08-05T01:47:21.182Z,100380.00
2022-08-05T01:50:02.227Z,100385.22
2022-08-05T01:52:30.145Z,100383.19
2022-08-05T01:54:58.076Z,100378.59
2022-08-05T01:58:29.709Z,100377.47
2022-08-05T02:00:19.308Z,100383.94
2022-08-05T02:02:54.357Z,100381.25
2022-08-05T02:05:23.711Z,100381.25
2022-08-05T02:07:57.830Z,100386.13
2022-08-05T02:10:28.687Z,100382.22
2022-08-05T02:12:57.062Z,100381.88
2022-08-05T02:15:24.910Z,100382.72
2022-08-05T02:18:32.447Z,100386.53
2022-08-05T02:20:58.638Z,100388.88
2022-08-05T02:23:29.144Z,100387.34
2022-08-05T02:26:00.608Z,100385.06
2022-08-05T02:28:32.125Z,100384.25
2022-08-05T02:31:14.617Z,100387.06
2022-08-05T02:33:45.094Z,100384.88
2022-08-05T02:36:16.608Z,100378.97
2022-08-05T02:38:53.167Z,100376.06
2022-08-05T02:41:20.570Z,100377.72
2022-08-05T02:44:06.503Z,100375.66
2022-08-05T02:46:36.374Z,100374.41
2022-08-05T02:49:20.267Z,100374.56
2022-08-05T02:52:03.190Z,100381.56
2022-08-05T02:54:34.841Z,100376.56
2022-08-05T02:57:03.342Z,100379.03
2022-08-05T02:59:50.717Z,100379.19
2022-08-05T03:02:20.452Z,100377.72
2022-08-05T03:04:47.124Z,100376.50
2022-08-05T03:07:48.456Z,100368.16
2022-08-05T03:10:07.238Z,100370.13
2022-08-05T03:12:34.994Z,100366.78
2022-08-05T03:15:01.591Z,100357.50
2022-08-05T03:17:28.559Z,100365.53
2022-08-05T03:19:55.308Z,100360.06
2022-08-05T03:22:32.175Z,100362.34
2022-08-05T03:25:31.499Z,100366.88
2022-08-05T03:27:58.883Z,100362.13
2022-08-05T03:30:33.751Z,100361.59
2022-08-05T03:33:05.780Z,100360.47
2022-08-05T03:35:33.884Z,100359.91
2022-08-05T03:38:07.302Z,100360.13
2022-08-05T03:40:34.261Z,100361.59
2022-08-05T03:43:15.968Z,100362.34
2022-08-05T03:45:57.728Z,100363.22
2022-08-05T03:48:27.173Z,100363.44
2022-08-05T03:52:49.112Z,100364.97
2022-08-05T03:55:50.442Z,100368.94
2022-08-05T03:56:50.981Z,100363.72
2022-08-05T03:59:29.243Z,100366.03
2022-08-05T04:02:17.336Z,100367.09
2022-08-05T04:04:44.891Z,100362.94
2022-08-05T04:07:11.580Z,100367.25
2022-08-05T04:09:39.786Z,100368.06
2022-08-05T04:12:24.445Z,100369.53
2022-08-05T04:14:51.527Z,100367.94
2022-08-05T04:17:18.167Z,100376.97
2022-08-05T04:19:46.395Z,100375.66
2022-08-05T04:22:21.355Z,100371.31
2022-08-05T04:24:52.812Z,100376.19
2022-08-05T04:27:19.775Z,100371.78
2022-08-05T04:30:07.237Z,100367.09
2022-08-05T04:32:33.837Z,100370.69
2022-08-05T04:35:03.008Z,100366.31
2022-08-05T04:38:02.864Z,100367.88
2022-08-05T04:40:19.784Z,100366.88
2022-08-05T04:42:46.514Z,100373.06
2022-08-05T04:45:14.165Z,100372.78
2022-08-05T04:47:49.698Z,100374.72
2022-08-05T04:50:37.362Z,100365.22
2022-08-05T04:53:04.311Z,100373.25
2022-08-05T04:56:14.429Z,100372.09
2022-08-05T04:58:17.811Z,100370.47
2022-08-05T05:00:50.832Z,100374.41
2022-08-05T05:03:18.800Z,100380.88
2022-08-05T05:06:40.199Z,100371.88
2022-08-05T05:08:33.631Z,100370.28
2022-08-05T05:11:00.389Z,100368.63
2022-08-05T05:13:26.981Z,100358.97
2022-08-05T05:16:02.179Z,100363.53
2022-08-05T05:18:33.829Z,100363.09
2022-08-05T05:21:01.595Z,100356.78
2022-08-05T05:23:38.772Z,100358.72
2022-08-05T05:26:14.748Z,100357.94
2022-08-05T05:28:44.842Z,100361.84
2022-08-05T05:31:11.909Z,100364.78
2022-08-05T05:33:59.732Z,100358.47
2022-08-05T05:36:25.182Z,100356.00
2022-08-05T05:38:55.600Z,100357.72
2022-08-05T05:41:22.265Z,100354.53
2022-08-05T05:43:57.345Z,100358.09
2022-08-05T05:46:26.767Z,100362.87
2022-08-05T05:48:53.404Z,100359.00
2022-08-05T05:51:21.613Z,100360.66
2022-08-05T05:53:57.941Z,100358.16
2022-08-05T05:56:32.528Z,100351.75
2022-08-05T05:59:03.541Z,100354.41
2022-08-05T06:01:37.897Z,100350.19
2022-08-05T06:04:12.948Z,100352.69
2022-08-05T06:06:42.810Z,100353.22
2022-08-05T06:09:16.700Z,100350.62
2022-08-05T06:11:59.480Z,100344.81
2022-08-05T06:14:27.951Z,100345.84
2022-08-05T06:16:55.583Z,100351.78
2022-08-05T06:19:26.199Z,100351.31
2022-08-05T06:22:02.798Z,100346.25
2022-08-05T06:24:29.977Z,100346.16
2022-08-05T06:26:57.690Z,100348.81
2022-08-05T06:29:49.240Z,100345.37
2022-08-05T06:32:21.195Z,100342.59
2022-08-05T06:34:53.584Z,100351.72
2022-08-05T06:37:55.570Z,100342.97
2022-08-05T06:40:10.142Z,100352.31
2022-08-05T06:42:37.086Z,100342.66
2022-08-05T06:45:08.781Z,100345.94
2022-08-05T06:48:37.317Z,100349.50
2022-08-05T06:50:23.507Z,100340.31
2022-08-05T06:53:03.648Z,100347.50
2022-08-05T06:55:37.016Z,100336.97
2022-08-05T06:58:29.238Z,100347.66
2022-08-05T07:00:50.902Z,100348.06
2022-08-05T07:03:17.602Z,100344.03
2022-08-05T07:05:44.637Z,100337.72
2022-08-05T07:08:13.073Z,100337.97
2022-08-05T07:10:52.879Z,100332.66
2022-08-05T07:13:59.468Z,100333.22
2022-08-05T07:18:01.494Z,100336.09
2022-08-05T07:22:28.271Z,100337.75
2022-08-05T07:25:23.909Z,100335.72
2022-08-05T07:27:57.586Z,100325.91
2022-08-05T07:30:34.307Z,100327.63
2022-08-05T07:33:09.005Z,100319.31
2022-08-05T07:36:05.300Z,100321.56
2022-08-05T07:38:32.993Z,100321.41
2022-08-05T07:41:16.861Z,100322.97
2022-08-05T07:43:49.308Z,100314.69
2022-08-05T07:46:20.745Z,100311.16
2022-08-05T07:49:02.030Z,100315.09
2022-08-05T07:51:36.798Z,100307.94
2022-08-05T07:54:09.535Z,100318.34
2022-08-05T07:57:01.305Z,100309.59
2022-08-05T07:59:31.007Z,100310.03
2022-08-05T08:02:07.563Z,100313.28
2022-08-05T08:04:42.990Z,100309.97
2022-08-05T08:07:11.969Z,100315.50
2022-08-05T08:09:38.612Z,100308.50
2022-08-05T08:12:11.460Z,100313.50
2022-08-05T08:14:47.065Z,100315.78
2022-08-05T08:17:16.055Z,100314.13
2022-08-05T08:20:43.383Z,100308.25
2022-08-05T08:22:34.852Z,100318.50
2022-08-05T08:25:02.808Z,100316.16
2022-08-05T08:27:40.419Z,100317.22
2022-08-05T08:30:19.617Z,100310.75
2022-08-05T08:33:04.593Z,100313.69
2022-08-05T08:35:41.460Z,100308.97
2022-08-05T08:38:35.706Z,100305.78
2022-08-05T08:41:05.724Z,100307.31
2022-08-05T08:45:20.003Z,100313.09
2022-08-05T08:46:20.811Z,100311.06
2022-08-05T08:49:06.196Z,100311.97
2022-08-05T08:52:02.850Z,100308.22
2022-08-05T08:54:21.056Z,100305.91
2022-08-05T08:56:54.076Z,100304.56
2022-08-05T08:59:23.218Z,100310.28
2022-08-05T09:01:57.582Z,100308.09
2022-08-05T09:04:30.357Z,100297.97
2022-08-05T09:06:57.680Z,100297.06
2022-08-05T09:09:25.196Z,100293.50
2022-08-05T09:11:54.757Z,100298.97
2022-08-05T09:14:58.531Z,100295.16
2022-08-05T09:17:40.089Z,100294.66
2022-08-05T09:20:02.658Z,100290.59
2022-08-05T09:23:04.937Z,100281.28
2022-08-05T09:26:02.193Z,100289.94
2022-08-05T09:28:32.602Z,100263.44
2022-08-05T09:31:44.096Z,100283.19
2022-08-05T09:34:01.047Z,100283.75
2022-08-05T09:36:54.402Z,100274.66
2022-08-05T09:39:39.157Z,100261.69
2022-08-05T09:42:11.452Z,100261.37
2022-08-05T09:44:50.621Z,100268.28
2022-08-05T09:47:20.624Z,100265.41
2022-08-05T09:50:01.931Z,100253.53
2022-08-05T09:52:35.786Z,100256.19
2022-08-05T09:55:58.100Z,100258.44
2022-08-05T09:58:00.049Z,100248.47
2022-08-05T10:00:27.809Z,100248.50
2022-08-05T10:02:58.251Z,100252.00
2022-08-05T10:05:27.033Z,100238.59
2022-08-05T10:08:35.203Z,100233.09
2022-08-05T10:10:44.559Z,100237.06
2022-08-05T10:13:11.613Z,100238.59
2022-08-05T10:15:41.808Z,100234.03
2022-08-05T10:18:20.398Z,100241.50
2022-08-05T10:20:50.058Z,100237.69
2022-08-05T10:23:58.858Z,100233.28
2022-08-05T10:26:32.604Z,100218.97
2022-08-05T10:29:00.683Z,100229.22
2022-08-05T10:32:52.972Z,100220.97
2022-08-05T10:34:13.915Z,100218.62
2022-08-05T10:36:41.233Z,100213.84
2022-08-05T10:39:14.990Z,100209.81
2022-08-05T10:42:01.492Z,100202.44
2022-08-05T10:44:28.184Z,100212.75
2022-08-05T10:46:56.387Z,100214.41
2022-08-05T10:49:27.167Z,100207.16
2022-08-05T10:52:02.399Z,100209.81
2022-08-05T10:55:04.727Z,100208.44
2022-08-05T10:57:31.984Z,100206.63
2022-08-05T11:00:27.327Z,100208.31
2022-08-05T11:02:59.251Z,100205.06
2022-08-05T11:06:03.710Z,100192.50
2022-08-05T11:08:39.221Z,100191.69
2022-08-05T11:11:33.214Z,100189.56
2022-08-05T11:14:12.472Z,100188.97
2022-08-05T11:16:56.665Z,100187.19
2022-08-05T11:20:10.335Z,100184.34
2022-08-05T11:22:50.102Z,100181.97
2022-08-05T11:26:10.075Z,100186.53
2022-08-05T11:28:38.042Z,100189.50
2022-08-05T11:31:07.678Z,100170.19
2022-08-05T11:33:46.592Z,100174.69
2022-08-05T11:36:34.286Z,100158.72
2022-08-05T11:39:12.048Z,100160.59
2022-08-05T11:42:01.673Z,100166.59
2022-08-05T11:44:52.946Z,100169.66
2022-08-05T11:47:22.142Z,100166.25
2022-08-05T11:50:07.654Z,100168.97
2022-08-05T11:52:34.316Z,100173.56
2022-08-05T11:55:07.282Z,100163.03
2022-08-05T11:58:08.315Z,100180.28
2022-08-05T12:00:28.801Z,100176.97
2022-08-05T12:02:56.589Z,100180.22
2022-08-05T12:05:32.247Z,100175.31
2022-08-05T12:08:11.006Z,100169.19
2022-08-05T12:10:45.925Z,100171.72
2022-08-05T12:13:27.687Z,100174.25
2022-08-05T12:16:14.532Z,100170.09
2022-08-05T12:18:42.735Z,100165.44
2022-08-05T12:21:29.988Z,100162.91
2022-08-05T12:24:04.645Z,100159.72
2022-08-05T12:26:48.524Z,100155.06
2022-08-05T12:29:23.682Z,100147.69
2022-08-05T12:31:54.627Z,100147.38
2022-08-05T12:34:25.756Z,100144.72
2022-08-05T12:36:53.495Z,100139.03
2022-08-05T12:39:20.275Z,100151.34
2022-08-05T12:41:46.935Z,100150.22
2022-08-05T12:44:21.662Z,100139.63
2022-08-05T12:47:00.155Z,100147.22
2022-08-05T12:50:04.594Z,100145.53
2022-08-05T12:52:29.575Z,100143.28
2022-08-05T12:55:00.441Z,100134.56
2022-08-05T12:57:28.790Z,100138.84
2022-08-05T13:02:00.104Z,100144.63
2022-08-05T13:03:12.320Z,100140.88
2022-08-05T13:05:41.597Z,100131.34
2022-08-05T13:08:08.879Z,100127.66
2022-08-05T13:10:50.660Z,100121.59
2022-08-05T13:14:07.348Z,100120.59
2022-08-05T13:16:12.389Z,100113.34
2022-08-05T13:18:55.141Z,100108.00
2022-08-05T13:21:28.267Z,100107.81
2022-08-05T13:24:05.542Z,100104.44
2022-08-05T13:26:32.174Z,100102.25
2022-08-05T13:28:59.212Z,100104.34
2022-08-05T13:32:03.386Z,100091.37
2022-08-05T13:34:22.020Z,100088.59
2022-08-05T13:36:52.068Z,100094.87
2022-08-05T13:39:24.649Z,100083.38
2022-08-05T13:42:05.403Z,100084.72
2022-08-05T13:44:32.635Z,100075.13
2022-08-05T13:47:02.562Z,100075.91
2022-08-05T13:49:35.253Z,100084.69
2022-08-05T13:52:12.431Z,100071.69
2022-08-05T13:54:39.280Z,100067.97
2022-08-05T13:57:06.492Z,100061.50
2022-08-05T13:59:33.152Z,100069.09
2022-08-05T14:02:02.873Z,100058.94
2022-08-05T14:04:52.115Z,100060.00
2022-08-05T14:07:59.475Z,100057.41
2022-08-05T14:10:28.197Z,100051.38
2022-08-05T14:12:55.900Z,100049.94
2022-08-05T14:16:09.255Z,100058.00
2022-08-05T14:18:14.674Z,100057.03
2022-08-05T14:20:46.989Z,100054.53
2022-08-05T14:23:14.795Z,100046.28
2022-08-05T14:25:54.220Z,100045.84
2022-08-05T14:28:26.314Z,100039.88
2022-08-05T14:30:54.636Z,100036.28
2022-08-05T14:33:22.792Z,100037.47
2022-08-05T14:35:52.072Z,100035.47
2022-08-05T14:38:31.612Z,100028.25
2022-08-05T14:41:00.958Z,100047.59
2022-08-05T14:43:59.271Z,100037.13
2022-08-05T14:46:14.048Z,100035.94
2022-08-05T14:48:40.754Z,100034.03
2022-08-05T14:51:08.368Z,100034.06
2022-08-05T14:53:44.161Z,100022.69
2022-08-05T14:56:11.173Z,100026.97
2022-08-05T14:58:38.541Z,100022.53
2022-08-05T15:01:16.103Z,100016.00
2022-08-05T15:03:43.449Z,100015.19
2022-08-05T15:06:15.146Z,100009.47
2022-08-05T15:09:01.173Z,100005.34
2022-08-05T15:11:52.831Z,100007.94
2022-08-05T15:14:33.256Z,100007.69
2022-08-05T15:17:03.793Z,100009.34
2022-08-05T15:19:31.058Z,100002.47
2022-08-05T15:22:00.271Z,100010.53
2022-08-05T15:24:28.081Z,100005.44
2022-08-05T15:26:55.780Z,100004.16
2022-08-05T15:29:23.013Z,100004.16
2022-08-05T15:31:53.016Z,99994.28
2022-08-05T15:34:32.119Z,99993.56
2022-08-05T15:37:03.444Z,99997.22
2022-08-05T15:41:02.879Z,99992.87
2022-08-05T15:42:54.804Z,99994.28
2022-08-05T15:45:06.485Z,99990.25
2022-08-05T15:47:35.894Z,99979.81
2022-08-05T15:50:02.760Z,99981.13
2022-08-05T15:52:51.769Z,99980.41
2022-08-05T15:55:17.686Z,99977.69
2022-08-05T15:57:48.862Z,99977.38
2022-08-05T16:00:26.419Z,99976.44
2022-08-05T16:02:57.980Z,99977.16
2022-08-05T16:05:28.187Z,99978.56
2022-08-05T16:07:55.184Z,99969.78
2022-08-05T16:10:25.570Z,99971.22
2022-08-05T16:12:55.979Z,99974.19
2022-08-05T16:15:23.326Z,99973.09
2022-08-05T16:17:57.859Z,99971.31
2022-08-05T16:20:25.499Z,99981.25
2022-08-05T16:22:52.837Z,99978.16
2022-08-05T16:25:19.508Z,99982.91
2022-08-05T16:28:00.340Z,99980.13
2022-08-05T16:30:32.261Z,99979.44
2022-08-05T16:32:59.362Z,99981.78
2022-08-05T16:35:28.252Z,99973.62
2022-08-05T16:38:03.657Z,99974.44
2022-08-05T16:40:52.068Z,99978.69
2022-08-05T16:43:27.287Z,99979.03
2022-08-05T16:46:04.010Z,99971.78
2022-08-05T16:48:35.820Z,99972.97
2022-08-05T16:51:08.720Z,99970.81
2022-08-05T16:54:03.480Z,99971.28
2022-08-05T16:56:23.732Z,99974.12
2022-08-05T16:58:50.564Z,99971.41
2022-08-05T17:01:18.763Z,99968.66
2022-08-05T17:03:45.830Z,99969.09
2022-08-05T17:06:12.641Z,99971.97
2022-08-05T17:08:53.230Z,99960.91
2022-08-05T17:11:23.433Z,99965.63
2022-08-05T17:13:50.657Z,99974.00
2022-08-05T17:16:32.796Z,99973.62
2022-08-05T17:19:00.590Z,99976.56
2022-08-05T17:21:35.333Z,99974.25
2022-08-05T17:24:18.391Z,99979.56
2022-08-05T17:26:53.533Z,99976.00
2022-08-05T17:29:22.788Z,99978.06
2022-08-05T17:32:00.724Z,99978.50
2022-08-05T17:34:29.725Z,99986.37
2022-08-05T17:36:58.732Z,99984.75
2022-08-05T17:39:33.965Z,99988.38
2022-08-05T17:42:17.558Z,99993.00
2022-08-05T17:44:50.808Z,99984.91
2022-08-05T17:47:22.477Z,99977.16
2022-08-05T17:50:00.030Z,99985.81
2022-08-05T17:52:31.864Z,99985.28
2022-08-05T17:54:58.473Z,99990.53
2022-08-05T17:57:25.093Z,99987.44
2022-08-05T18:00:04.937Z,99987.50
2022-08-05T18:02:34.231Z,99989.19
2022-08-05T18:05:06.287Z,99993.87
2022-08-05T18:07:41.321Z,99989.53
2022-08-05T18:10:10.339Z,99991.47
2022-08-05T18:12:37.338Z,99989.88
2022-08-05T18:15:04.295Z,99989.91
2022-08-05T18:17:58.994Z,99993.09
2022-08-05T18:20:19.471Z,99993.72
2022-08-05T18:22:57.221Z,99988.81
2022-08-05T18:25:25.002Z,99988.81
2022-08-05T18:27:52.213Z,99994.75
2022-08-05T18:30:19.211Z,99992.66
2022-08-05T18:32:53.180Z,99991.69
2022-08-05T18:35:21.036Z,99990.22
2022-08-05T18:38:07.779Z,99993.59
2022-08-05T18:41:53.994Z,100002.41
2022-08-05T18:43:21.670Z,99996.97
2022-08-05T18:45:49.736Z,100002.84
2022-08-05T18:48:30.473Z,100003.69
2022-08-05T18:52:06.152Z,100010.81
2022-08-05T18:54:04.088Z,100004.97
2022-08-05T18:56:30.698Z,100006.00
2022-08-05T18:59:01.214Z,100009.16
2022-08-05T19:01:33.181Z,100010.22
2022-08-05T19:04:13.963Z,100012.12
2022-08-05T19:06:50.845Z,100020.06
2022-08-05T19:09:17.530Z,100016.53
2022-08-05T19:12:00.015Z,100006.94
2022-08-05T19:14:44.536Z,100012.16
2022-08-05T19:17:15.794Z,100010.03
2022-08-05T19:19:48.546Z,100021.50
2022-08-05T19:22:17.178Z,100019.44
2022-08-05T19:24:55.778Z,100019.84
2022-08-05T19:27:24.174Z,100016.09
2022-08-05T19:29:57.179Z,100019.03
2022-08-05T19:32:25.902Z,100019.41
2022-08-05T19:34:54.693Z,100016.50
2022-08-05T19:37:29.887Z,100017.34
2022-08-05T19:40:02.144Z,100023.41
2022-08-05T19:42:36.302Z,100022.16
2022-08-05T19:45:05.637Z,100024.44
2022-08-05T19:47:33.905Z,100020.44
2022-08-05T19:50:01.134Z,100017.09
2022-08-05T19:52:31.854Z,100021.25
2022-08-05T19:55:00.505Z,100018.09
2022-08-05T19:58:02.766Z,100021.25
2022-08-05T20:00:20.813Z,100022.03
2022-08-05T20:02:47.549Z,100030.78
2022-08-05T20:05:16.415Z,100028.50
2022-08-05T20:07:55.042Z,100034.94
2022-08-05T20:10:24.987Z,100028.69
2022-08-05T20:12:51.801Z,100033.47
2022-08-05T20:15:47.809Z,100039.28
2022-08-05T20:18:10.807Z,100032.41
2022-08-05T20:20:55.323Z,100035.09
2022-08-05T20:23:23.827Z,100037.78
2022-08-05T20:26:07.487Z,100039.84
2022-08-05T20:28:34.318Z,100040.03
2022-08-05T20:31:02.686Z,100048.78
2022-08-05T20:33:29.525Z,100058.13
2022-08-05T20:35:57.675Z,100055.19
2022-08-05T20:38:26.863Z,100059.53
2022-08-05T20:40:55.497Z,100053.03
2022-08-05T20:43:33.185Z,100054.47
2022-08-05T20:46:10.359Z,100056.16
2022-08-05T20:48:44.940Z,100058.03
2022-08-05T20:51:17.596Z,100054.28
2022-08-05T20:53:44.192Z,100048.41
2022-08-05T20:56:28.954Z,100058.63
2022-08-05T20:59:00.047Z,100064.44
2022-08-05T21:01:38.526Z,100063.16
2022-08-05T21:04:07.259Z,100064.59
2022-08-05T21:06:36.947Z,100067.03
2022-08-05T21:09:07.882Z,100064.53
2022-08-05T21:12:07.206Z,100065.31
2022-08-05T21:14:26.695Z,100074.47
2022-08-05T21:16:53.489Z,100075.25
2022-08-05T21:19:20.201Z,100070.03
2022-08-05T21:21:50.581Z,100072.09
2022-08-05T21:24:19.690Z,100070.81
2022-08-05T21:26:57.959Z,100068.91
2022-08-05T21:29:26.483Z,100071.19
2022-08-05T21:31:57.933Z,100075.94
2022-08-05T21:34:24.516Z,100080.72
2022-08-05T21:36:51.126Z,100088.19
2022-08-05T21:39:26.776Z,100088.56
2022-08-05T21:42:01.964Z,100087.94
2022-08-05T21:44:32.084Z,100084.75
2022-08-05T21:46:58.998Z,100083.25
2022-08-05T21:49:48.342Z,100081.97
2022-08-05T21:52:15.900Z,100081.53
2022-08-05T21:54:54.941Z,100086.06
2022-08-05T21:57:31.456Z,100090.53
2022-08-05T22:00:05.290Z,100089.06
2022-08-05T22:02:33.713Z,100089.91
2022-08-05T22:05:00.395Z,100085.25
2022-08-05T22:07:40.452Z,100084.16
2022-08-05T22:10:15.164Z,100080.38
2022-08-05T22:12:45.015Z,100086.16
2022-08-05T22:16:01.660Z,100092.59
2022-08-05T22:18:04.541Z,100091.31
2022-08-05T22:20:31.188Z,100089.13
2022-08-05T22:23:21.444Z,100088.69
2022-08-05T22:26:10.403Z,100087.56
2022-08-05T22:28:38.245Z,100090.47
2022-08-05T22:31:05.848Z,100085.06
2022-08-05T22:33:57.134Z,100094.84
2022-08-05T22:36:19.431Z,100092.25
2022-08-05T22:38:50.923Z,100090.75
2022-08-05T22:42:05.671Z,100090.97
2022-08-05T22:44:05.470Z,100084.34
2022-08-05T22:46:32.045Z,100081.16
2022-08-05T22:48:59.147Z,100075.50
2022-08-05T22:52:04.547Z,100084.25
2022-08-05T22:54:12.349Z,100079.22
2022-08-05T22:56:40.037Z,100079.97
2022-08-05T22:59:43.917Z,100080.38
2022-08-05T23:02:06.048Z,100085.66
2022-08-05T23:04:34.649Z,100085.31
2022-08-05T23:07:01.503Z,100081.47
2022-08-05T23:09:57.199Z,100090.63
2022-08-05T23:12:17.762Z,100086.59
2022-08-05T23:14:44.588Z,100082.59
2022-08-05T23:17:24.523Z,100081.94
2022-08-05T23:20:02.315Z,100078.31
2022-08-05T23:22:29.244Z,100087.31
2022-08-05T23:24:57.486Z,100087.13
2022-08-05T23:27:24.260Z,100079.97
2022-08-05T23:29:57.820Z,100083.06
2022-08-05T23:32:24.742Z,100079.22
2022-08-05T23:34:53.761Z,100088.16
2022-08-05T23:37:20.369Z,100083.88
2022-08-05T23:39:54.157Z,100079.34
2022-08-05T23:42:23.510Z,100075.53
2022-08-05T23:44:55.752Z,100077.41
2022-08-05T23:47:22.389Z,100068.66
2022-08-05T23:49:52.207Z,100081.37
2022-08-05T23:52:26.471Z,100071.13
2022-08-05T23:54:58.041Z,100072.34
2022-08-05T23:57:25.959Z,100078.63
